Time;durP1;ratioP1;P1;durP2;ratioP2;P2;SDS_P1;SDS_P2;PMS_P1;PMS_P2;Temp;Humidity;BMP_temperature;BMP_pressure;BME280_temperature;BME280_humidity;BME280_pressure;Samples;Min_cycle;Max_cycle;Signal;HPM_P1;HPM_P2
2023/03/26 00:01:22;;;;;;;14.95;7.38;;;;;;;;;;5062076;28;20028;-78
2023/03/26 00:03:52;;;;;;;13.63;8.02;;;;;;;;;;5076424;28;20028;-78
2023/03/26 00:06:19;;;;;;;19.50;9.35;;;;;;;;;;5062993;28;20027;-78
2023/03/26 00:08:45;;;;;;;20.25;9.68;;;;;;;;;;5096332;28;20032;-78
2023/03/26 00:11:11;;;;;;;17.23;10.55;;;;;;;;;;5096108;28;20373;-79
2023/03/26 00:13:37;;;;;;;17.95;10.27;;;;;;;;;;5078458;28;20028;-79
2023/03/26 00:16:03;;;;;;;19.70;10.23;;;;;;;;;;5061417;28;20059;-79
2023/03/26 00:18:33;;;;;;;18.10;10.40;;;;;;;;;;5044865;28;20032;-79
2023/03/26 00:21:00;;;;;;;15.88;9.05;;;;;;;;;;5063168;28;20370;-78
2023/03/26 00:23:27;;;;;;;17.30;9.65;;;;;;;;;;5061538;28;20032;-78
2023/03/26 00:25:53;;;;;;;17.05;9.07;;;;;;;;;;5044733;28;20035;-78
2023/03/26 00:28:21;;;;;;;16.00;9.10;;;;;;;;;;5096135;28;20085;-78
2023/03/26 00:30:47;;;;;;;17.77;9.13;;;;;;;;;;5078353;28;20034;-79
2023/03/26 00:33:16;;;;;;;18.95;9.85;;;;;;;;;;5061160;28;20040;-79
2023/03/26 00:35:45;;;;;;;19.13;9.60;;;;;;;;;;5095994;28;20436;-78
2023/03/26 00:38:12;;;;;;;18.60;10.38;;;;;;;;;;5062439;28;20024;-78
2023/03/26 00:40:37;;;;;;;19.00;10.43;;;;;;;;;;5044397;28;20446;-77
2023/03/26 00:43:08;;;;;;;22.02;11.10;;;;;;;;;;5077833;28;20024;-78
2023/03/26 00:45:34;;;;;;;23.40;10.52;;;;;;;;;;5095722;28;20027;-78
2023/03/26 00:48:00;;;;;;;20.10;11.10;;;;;;;;;;5077387;28;20024;-78
2023/03/26 00:50:25;;;;;;;19.02;10.90;;;;;;;;;;5077342;28;20063;-78
2023/03/26 00:52:54;;;;;;;20.38;12.20;;;;;;;;;;5077573;28;20092;-78
2023/03/26 00:55:20;;;;;;;25.30;11.48;;;;;;;;;;5095245;28;20028;-78
2023/03/26 00:57:45;;;;;;;23.38;10.95;;;;;;;;;;5095431;28;20024;-78
2023/03/26 01:00:14;;;;;;;19.48;11.40;;;;;;;;;;5095476;28;20035;-78
2023/03/26 01:02:39;;;;;;;22.67;12.07;;;;;;;;;;5077841;28;20032;-79
2023/03/26 01:05:34;;;;;;;21.65;10.98;;;;;;;;;;5077269;28;20437;-77
2023/03/26 01:08:27;;;;;;;19.33;11.20;;;;;;;;;;5085636;28;20043;-78
2023/03/26 01:11:01;;;;;;;19.05;11.55;;;;;;;;;;5074023;28;20092;-78
2023/03/26 01:13:27;;;;;;;19.80;11.77;;;;;;;;;;5062654;28;20381;-78
2023/03/26 01:15:53;;;;;;;22.52;12.73;;;;;;;;;;5060427;28;20467;-79
2023/03/26 01:18:25;;;;;;;20.20;12.10;;;;;;;;;;5076789;28;20042;-78
2023/03/26 01:20:51;;;;;;;20.65;11.73;;;;;;;;;;5061047;28;20081;-77
2023/03/26 01:23:20;;;;;;;21.83;12.27;;;;;;;;;;5060405;28;20082;-78
2023/03/26 01:25:50;;;;;;;19.05;11.30;;;;;;;;;;5060619;28;20032;-78
2023/03/26 01:28:16;;;;;;;21.85;12.00;;;;;;;;;;5044131;28;20032;-78
2023/03/26 01:30:50;;;;;;;23.48;11.15;;;;;;;;;;5060127;28;20083;-79
2023/03/26 01:33:21;;;;;;;23.63;12.25;;;;;;;;;;5060935;28;20057;-79
2023/03/26 01:35:55;;;;;;;29.20;12.05;;;;;;;;;;5095033;28;20529;-79
2023/03/26 01:38:23;;;;;;;22.65;12.35;;;;;;;;;;5060494;28;20075;-78
2023/03/26 01:41:08;;;;;;;23.40;12.20;;;;;;;;;;5076803;28;20024;-79
2023/03/26 01:43:55;;;;;;;22.25;12.43;;;;;;;;;;5094694;28;20028;-78
2023/03/26 01:46:21;;;;;;;21.63;12.27;;;;;;;;;;5094959;28;20028;-77
2023/03/26 01:48:47;;;;;;;23.20;12.93;;;;;;;;;;5076346;28;20473;-78
2023/03/26 01:51:12;;;;;;;23.08;13.27;;;;;;;;;;5059503;28;20077;-78
2023/03/26 01:53:45;;;;;;;31.73;13.82;;;;;;;;;;5094762;28;20111;-78
2023/03/26 01:56:55;;;;;;;27.17;14.10;;;;;;;;;;5076551;28;20020;-78
2023/03/26 01:59:40;;;;;;;27.92;14.45;;;;;;;;;;5042494;28;20054;-79
2023/03/26 02:02:34;;;;;;;25.83;14.40;;;;;;;;;;5094399;28;20024;-78
2023/03/26 02:05:09;;;;;;;29.00;13.93;;;;;;;;;;5089276;28;20044;-78
2023/03/26 02:07:43;;;;;;;32.28;14.65;;;;;;;;;;5075840;28;20520;-78
2023/03/26 02:10:25;;;;;;;26.27;14.48;;;;;;;;;;5094197;28;20498;-79
2023/03/26 02:12:51;;;;;;;24.42;13.70;;;;;;;;;;5059786;28;20731;-78
2023/03/26 02:15:16;;;;;;;24.60;13.80;;;;;;;;;;5060101;28;20044;-79
2023/03/26 02:17:42;;;;;;;30.17;15.55;;;;;;;;;;5042788;28;20039;-78
2023/03/26 02:20:13;;;;;;;29.58;14.82;;;;;;;;;;5042760;28;20040;-78
2023/03/26 02:22:44;;;;;;;30.60;15.07;;;;;;;;;;5076809;28;20380;-79
2023/03/26 02:25:11;;;;;;;31.40;14.75;;;;;;;;;;5077005;28;20465;-78
2023/03/26 02:27:37;;;;;;;30.13;15.35;;;;;;;;;;5059587;28;20107;-77
2023/03/26 02:30:05;;;;;;;30.70;16.25;;;;;;;;;;5059238;28;20572;-78
2023/03/26 02:32:30;;;;;;;31.02;15.75;;;;;;;;;;5076176;28;20450;-78
2023/03/26 02:34:56;;;;;;;29.60;14.05;;;;;;;;;;5059071;28;20029;-78
2023/03/26 02:37:21;;;;;;;27.48;13.80;;;;;;;;;;5076164;28;20044;-78
2023/03/26 02:39:47;;;;;;;26.15;13.60;;;;;;;;;;5094005;28;20407;-78
2023/03/26 02:42:12;;;;;;;24.13;12.98;;;;;;;;;;5076555;28;20028;-78
2023/03/26 02:44:39;;;;;;;26.52;13.18;;;;;;;;;;5059299;28;20453;-78
2023/03/26 02:47:04;;;;;;;21.70;11.88;;;;;;;;;;5076064;28;20436;-79
2023/03/26 02:49:30;;;;;;;25.45;12.88;;;;;;;;;;5075601;28;20063;-79
2023/03/26 02:51:56;;;;;;;27.30;12.52;;;;;;;;;;5075914;28;20028;-79
2023/03/26 02:54:22;;;;;;;25.48;12.95;;;;;;;;;;5059240;28;20407;-79
2023/03/26 02:56:47;;;;;;;26.67;13.63;;;;;;;;;;5059407;28;20478;-79
2023/03/26 02:59:13;;;;;;;31.08;13.77;;;;;;;;;;5076094;28;20032;-77
2023/03/26 03:01:41;;;;;;;27.65;13.73;;;;;;;;;;5059487;28;20088;-79
2023/03/26 03:04:10;;;;;;;28.63;13.75;;;;;;;;;;5075892;28;20024;-78
2023/03/26 03:06:39;;;;;;;25.40;12.77;;;;;;;;;;5059580;28;20020;-79
2023/03/26 03:09:08;;;;;;;24.05;12.65;;;;;;;;;;5059911;28;20081;-78
2023/03/26 03:11:33;;;;;;;24.20;12.40;;;;;;;;;;5059511;28;20024;-78
2023/03/26 03:13:59;;;;;;;25.10;13.30;;;;;;;;;;5063077;28;20027;-77
2023/03/26 03:16:25;;;;;;;22.38;12.73;;;;;;;;;;5062883;28;20089;-76
2023/03/26 03:18:55;;;;;;;32.13;13.57;;;;;;;;;;5079212;28;20032;-77
2023/03/26 03:21:21;;;;;;;21.10;12.10;;;;;;;;;;5080265;28;20426;-79
2023/03/26 03:23:47;;;;;;;25.95;12.25;;;;;;;;;;5062944;28;20038;-78
2023/03/26 03:26:20;;;;;;;28.05;12.48;;;;;;;;;;5079362;28;20111;-78
2023/03/26 03:28:49;;;;;;;28.13;12.90;;;;;;;;;;5063632;28;20040;-78
2023/03/26 03:31:15;;;;;;;22.00;11.95;;;;;;;;;;5046081;28;20028;-78
2023/03/26 03:33:41;;;;;;;25.60;13.48;;;;;;;;;;5079547;28;20048;-78
2023/03/26 03:36:10;;;;;;;25.88;13.70;;;;;;;;;;5079821;28;20059;-77
2023/03/26 03:38:39;;;;;;;27.30;14.38;;;;;;;;;;5062779;28;20131;-77
2023/03/26 03:41:05;;;;;;;24.15;13.45;;;;;;;;;;5079407;28;20064;-78
2023/03/26 03:43:31;;;;;;;25.00;13.73;;;;;;;;;;5078944;28;20028;-78
2023/03/26 03:45:57;;;;;;;25.75;14.15;;;;;;;;;;5097078;28;20024;-77
2023/03/26 03:48:23;;;;;;;24.85;14.63;;;;;;;;;;5045549;28;20035;-77
2023/03/26 03:50:48;;;;;;;24.27;13.07;;;;;;;;;;5078840;28;20024;-78
2023/03/26 03:53:14;;;;;;;26.33;13.43;;;;;;;;;;5079108;28;20036;-78
2023/03/26 03:55:51;;;;;;;25.13;13.68;;;;;;;;;;5078844;28;20028;-77
2023/03/26 03:58:21;;;;;;;25.67;13.30;;;;;;;;;;5063522;28;20032;-78
2023/03/26 04:00:59;;;;;;;26.20;13.20;;;;;;;;;;5078883;28;20028;-78
2023/03/26 04:03:26;;;;;;;24.08;13.25;;;;;;;;;;5062902;28;20061;-77
2023/03/26 04:05:53;;;;;;;24.83;13.18;;;;;;;;;;5062273;28;20024;-78
2023/03/26 04:08:20;;;;;;;28.70;13.57;;;;;;;;;;5096583;28;20051;-78
2023/03/26 04:10:46;;;;;;;27.73;13.55;;;;;;;;;;5062050;28;20094;-78
2023/03/26 04:13:11;;;;;;;23.45;13.32;;;;;;;;;;5096340;28;20042;-77
2023/03/26 04:15:37;;;;;;;29.88;13.27;;;;;;;;;;5061742;28;20036;-77
2023/03/26 04:18:03;;;;;;;26.25;14.23;;;;;;;;;;5061711;28;20046;-78
2023/03/26 04:20:28;;;;;;;27.27;12.48;;;;;;;;;;5061577;28;20081;-78
2023/03/26 04:22:54;;;;;;;24.23;12.93;;;;;;;;;;5096307;28;20024;-78
2023/03/26 04:25:20;;;;;;;24.75;13.43;;;;;;;;;;5096197;28;20039;-78
2023/03/26 04:27:46;;;;;;;26.77;13.20;;;;;;;;;;5061705;28;20089;-78
2023/03/26 04:30:14;;;;;;;26.98;14.77;;;;;;;;;;5061677;28;20118;-77
2023/03/26 04:32:41;;;;;;;36.22;16.05;;;;;;;;;;5061280;28;20064;-78
2023/03/26 04:35:10;;;;;;;27.35;14.25;;;;;;;;;;5045292;28;20043;-77
2023/03/26 04:37:40;;;;;;;28.38;15.43;;;;;;;;;;5078093;28;20028;-77
2023/03/26 04:40:17;;;;;;;27.97;14.93;;;;;;;;;;5062274;28;20050;-78
2023/03/26 04:42:45;;;;;;;28.45;15.23;;;;;;;;;;5077982;28;20027;-78
2023/03/26 04:45:15;;;;;;;26.60;15.00;;;;;;;;;;5095691;28;20133;-78
2023/03/26 04:47:40;;;;;;;26.05;14.10;;;;;;;;;;5061279;28;20453;-78
2023/03/26 04:50:06;;;;;;;30.48;15.50;;;;;;;;;;5044284;28;20080;-77
2023/03/26 04:52:32;;;;;;;31.60;14.35;;;;;;;;;;5077843;28;20386;-78
2023/03/26 04:54:57;;;;;;;29.80;14.30;;;;;;;;;;5077731;28;20028;-78
2023/03/26 04:57:31;;;;;;;24.27;13.18;;;;;;;;;;5077734;28;20032;-78
2023/03/26 04:59:57;;;;;;;30.05;14.13;;;;;;;;;;5061390;28;20048;-78
2023/03/26 05:02:23;;;;;;;26.83;13.40;;;;;;;;;;5060760;28;20135;-78
2023/03/26 05:04:49;;;;;;;28.02;14.00;;;;;;;;;;5060725;28;20067;-78
2023/03/26 05:07:16;;;;;;;26.10;13.20;;;;;;;;;;5061047;28;20105;-78
2023/03/26 05:09:42;;;;;;;25.30;12.90;;;;;;;;;;5060444;28;20043;-78
2023/03/26 05:12:07;;;;;;;26.55;11.75;;;;;;;;;;5077298;28;20354;-78
2023/03/26 05:14:35;;;;;;;22.63;12.20;;;;;;;;;;5095078;28;20085;-77
2023/03/26 05:17:00;;;;;;;24.95;12.13;;;;;;;;;;5095184;28;20105;-78
2023/03/26 05:19:26;;;;;;;27.60;12.45;;;;;;;;;;5077279;28;20028;-78
2023/03/26 05:21:51;;;;;;;25.05;11.90;;;;;;;;;;5043962;28;20024;-79
2023/03/26 05:24:18;;;;;;;23.40;10.85;;;;;;;;;;5094996;28;20020;-78
2023/03/26 05:26:43;;;;;;;21.70;11.30;;;;;;;;;;5077133;28;20020;-77
2023/03/26 05:29:09;;;;;;;23.73;11.48;;;;;;;;;;5043434;28;20028;-78
2023/03/26 05:31:34;;;;;;;26.05;12.30;;;;;;;;;;5060093;28;20035;-77
2023/03/26 05:34:00;;;;;;;26.30;11.82;;;;;;;;;;5077003;28;20763;-78
2023/03/26 05:36:27;;;;;;;24.60;13.15;;;;;;;;;;5043502;28;20031;-78
2023/03/26 05:38:52;;;;;;;24.90;11.77;;;;;;;;;;5060252;28;20373;-78
2023/03/26 05:41:18;;;;;;;22.65;11.75;;;;;;;;;;5059923;28;20036;-78
2023/03/26 05:43:47;;;;;;;23.85;12.02;;;;;;;;;;5059870;28;20024;-78
2023/03/26 05:46:13;;;;;;;25.00;11.60;;;;;;;;;;5077210;28;20024;-78
2023/03/26 05:48:38;;;;;;;20.55;10.38;;;;;;;;;;5059858;28;20019;-78
2023/03/26 05:51:04;;;;;;;22.95;10.52;;;;;;;;;;5059763;28;20044;-77
2023/03/26 05:53:30;;;;;;;20.83;11.02;;;;;;;;;;5076717;28;20028;-77
2023/03/26 05:55:58;;;;;;;22.02;10.68;;;;;;;;;;5059996;28;20032;-78
2023/03/26 05:58:27;;;;;;;21.02;10.20;;;;;;;;;;5094088;28;20475;-78
2023/03/26 06:01:24;;;;;;;19.58;10.48;;;;;;;;;;5059636;28;20028;-78
2023/03/26 06:03:50;;;;;;;19.13;9.82;;;;;;;;;;5074290;28;20071;-79
2023/03/26 06:06:17;;;;;;;20.77;9.13;;;;;;;;;;5043562;28;20024;-78
2023/03/26 06:08:45;;;;;;;14.88;8.35;;;;;;;;;;5076233;28;20495;-78
2023/03/26 06:11:11;;;;;;;14.60;7.20;;;;;;;;;;5076887;28;20505;-78
2023/03/26 06:13:37;;;;;;;17.38;7.93;;;;;;;;;;5076121;28;20052;-78
2023/03/26 06:16:03;;;;;;;12.38;7.03;;;;;;;;;;5059276;28;20093;-78
2023/03/26 06:18:28;;;;;;;12.45;6.60;;;;;;;;;;5076212;28;20085;-78
2023/03/26 06:20:54;;;;;;;9.52;6.28;;;;;;;;;;5059561;28;20020;-79
2023/03/26 06:23:19;;;;;;;9.48;6.40;;;;;;;;;;5059669;28;20089;-79
2023/03/26 06:25:45;;;;;;;9.95;5.95;;;;;;;;;;5059641;28;20055;-79
2023/03/26 06:28:11;;;;;;;11.38;6.10;;;;;;;;;;5076251;28;20028;-78
2023/03/26 06:30:37;;;;;;;9.10;5.75;;;;;;;;;;5076240;28;20114;-79
2023/03/26 06:33:02;;;;;;;10.02;5.70;;;;;;;;;;5042910;28;20540;-78
2023/03/26 06:35:29;;;;;;;10.13;5.55;;;;;;;;;;5076095;28;20029;-79
2023/03/26 06:37:55;;;;;;;11.00;5.20;;;;;;;;;;5043032;28;20031;-79
2023/03/26 06:40:20;;;;;;;8.00;5.20;;;;;;;;;;5059369;28;20036;-79
2023/03/26 06:42:46;;;;;;;9.98;5.55;;;;;;;;;;5075917;28;20448;-79
2023/03/26 06:45:11;;;;;;;9.43;5.40;;;;;;;;;;5076084;28;20028;-78
2023/03/26 06:47:37;;;;;;;10.52;5.13;;;;;;;;;;5078307;28;20020;-78
2023/03/26 06:50:03;;;;;;;15.32;5.90;;;;;;;;;;5098386;28;20058;-79
2023/03/26 06:52:28;;;;;;;7.35;4.97;;;;;;;;;;5080083;28;20035;-79
2023/03/26 06:54:54;;;;;;;8.70;5.95;;;;;;;;;;5079989;28;20031;-79
2023/03/26 06:57:19;;;;;;;12.30;6.15;;;;;;;;;;5079848;28;20543;-78
2023/03/26 06:59:45;;;;;;;9.85;6.65;;;;;;;;;;5079808;28;20044;-76
2023/03/26 07:02:11;;;;;;;11.50;6.03;;;;;;;;;;5097978;28;20481;-79
2023/03/26 07:04:36;;;;;;;11.05;6.35;;;;;;;;;;5046329;28;20448;-78
2023/03/26 07:07:02;;;;;;;11.00;5.82;;;;;;;;;;5079727;28;20335;-75
2023/03/26 07:09:29;;;;;;;13.35;6.65;;;;;;;;;;5079567;28;20070;-79
2023/03/26 07:11:56;;;;;;;11.30;6.13;;;;;;;;;;5079531;28;20111;-78
2023/03/26 07:14:23;;;;;;;7.15;4.65;;;;;;;;;;5097603;28;20028;-79
2023/03/26 07:16:49;;;;;;;7.00;4.75;;;;;;;;;;5062186;28;20051;-78
2023/03/26 07:19:14;;;;;;;7.15;4.30;;;;;;;;;;5078103;28;20028;-78
2023/03/26 07:21:40;;;;;;;8.23;4.10;;;;;;;;;;5061433;28;20425;-78
2023/03/26 07:24:09;;;;;;;10.15;5.40;;;;;;;;;;5096433;28;20102;-77
2023/03/26 07:26:43;;;;;;;10.10;5.10;;;;;;;;;;5061671;28;20126;-79
2023/03/26 07:29:13;;;;;;;8.35;4.82;;;;;;;;;;5077923;28;20040;-78
2023/03/26 07:32:08;;;;;;;6.80;4.10;;;;;;;;;;5061370;28;20438;-78
2023/03/26 07:34:37;;;;;;;6.47;4.43;;;;;;;;;;5081354;28;20043;-78
2023/03/26 07:37:15;;;;;;;20.60;10.70;;;;;;;;;;5095853;28;20141;-78
2023/03/26 07:39:50;;;;;;;11.18;4.75;;;;;;;;;;5095625;28;20106;-78
2023/03/26 07:42:26;;;;;;;10.60;5.07;;;;;;;;;;5077490;28;20020;-79
2023/03/26 07:45:16;;;;;;;12.18;4.30;;;;;;;;;;5096153;28;20051;-78
2023/03/26 07:47:43;;;;;;;5.80;3.60;;;;;;;;;;5077673;28;20028;-78
2023/03/26 07:50:16;;;;;;;5.53;3.92;;;;;;;;;;5061226;28;20035;-78
2023/03/26 07:52:42;;;;;;;5.53;3.17;;;;;;;;;;5095376;28;20028;-78
2023/03/26 07:55:11;;;;;;;7.45;3.92;;;;;;;;;;5095483;28;20050;-78
2023/03/26 07:57:45;;;;;;;;;;;;;;;;;;5077644;28;20111;-78
2023/03/26 08:00:14;;;;;;;8.77;5.22;;;;;;;;;;5077726;28;19912;-77
2023/03/26 08:02:46;;;;;;;;;;;;;;;;;;5078095;28;20398;-78
2023/03/26 08:05:17;;;;;;;12.45;4.97;;;;;;;;;;5095466;28;19912;-78
2023/03/26 08:08:04;;;;;;;7.55;4.68;;;;;;;;;;5078083;28;20026;-77
2023/03/26 08:10:32;;;;;;;7.93;4.80;;;;;;;;;;5095231;28;20034;-78
2023/03/26 08:13:10;;;;;;;9.88;5.55;;;;;;;;;;5077240;28;20047;-78
2023/03/26 08:16:15;;;;;;;11.03;5.03;;;;;;;;;;5034638;28;1227652;-78
2023/03/26 08:18:55;;;;;;;6.20;4.05;;;;;;;;;;5061458;28;20075;-78
2023/03/26 08:21:38;;;;;;;8.23;4.53;;;;;;;;;;5047097;28;20034;-78
2023/03/26 08:24:21;;;;;;;7.88;4.88;;;;;;;;;;5078212;28;20031;-77
2023/03/26 08:27:12;;;;;;;8.93;4.70;;;;;;;;;;5078235;28;20028;-76
2023/03/26 08:29:48;;;;;;;7.55;4.50;;;;;;;;;;5089006;28;20123;-77
2023/03/26 08:32:16;;;;;;;6.95;4.90;;;;;;;;;;5060132;28;20381;-77
2023/03/26 08:34:41;;;;;;;7.32;4.68;;;;;;;;;;5077188;28;20111;-78
2023/03/26 08:37:08;;;;;;;10.15;4.78;;;;;;;;;;5077005;28;20465;-78
2023/03/26 08:39:35;;;;;;;13.15;5.07;;;;;;;;;;5077441;28;20113;-77
2023/03/26 08:42:34;;;;;;;8.05;5.45;;;;;;;;;;5078050;28;20027;-77
2023/03/26 08:45:18;;;;;;;6.88;4.80;;;;;;;;;;5077566;28;20437;-77
2023/03/26 08:48:34;;;;;;;11.55;4.93;;;;;;;;;;5095775;28;20032;-77
2023/03/26 08:51:17;;;;;;;11.55;5.15;;;;;;;;;;5050325;28;20058;-76
2023/03/26 08:54:06;;;;;;;8.02;5.10;;;;;;;;;;5093595;28;20102;-77
2023/03/26 08:57:02;;;;;;;8.73;5.57;;;;;;;;;;5076301;28;20020;-77
2023/03/26 08:59:52;;;;;;;10.07;5.78;;;;;;;;;;5079722;28;20028;-77
2023/03/26 09:02:17;;;;;;;;;;;;;;;;;;5058828;28;20064;-78
2023/03/26 09:04:57;;;;;;;15.43;5.88;;;;;;;;;;5097087;28;19919;-76
2023/03/26 09:07:31;;;;;;;9.48;5.40;;;;;;;;;;5097199;28;20306;-78
2023/03/26 09:10:13;;;;;;;7.10;4.78;;;;;;;;;;5096735;28;20460;-78
2023/03/26 09:13:00;;;;;;;6.72;4.75;;;;;;;;;;5079348;28;20040;-78
2023/03/26 09:16:04;;;;;;;9.70;5.32;;;;;;;;;;5095810;28;20048;-76
2023/03/26 09:18:54;;;;;;;12.57;6.40;;;;;;;;;;5061116;28;20035;-77
2023/03/26 09:21:43;;;;;;;11.07;5.72;;;;;;;;;;5062776;28;20089;-77
2023/03/26 09:24:30;;;;;;;9.93;5.00;;;;;;;;;;5077315;28;20064;-77
2023/03/26 09:27:09;;;;;;;7.45;4.32;;;;;;;;;;5079959;28;20039;-77
2023/03/26 09:29:38;;;;;;;8.30;5.45;;;;;;;;;;5044733;28;20038;-77
2023/03/26 09:32:47;;;;;;;11.45;6.03;;;;;;;;;;5076945;28;20034;-77
2023/03/26 09:35:50;;;;;;;10.90;5.15;;;;;;;;;;4999326;28;20091;-77
2023/03/26 09:38:39;;;;;;;7.97;4.85;;;;;;;;;;5076826;28;20040;-78
2023/03/26 09:41:33;;;;;;;13.03;4.47;;;;;;;;;;5073351;28;20036;-77
2023/03/26 09:44:21;;;;;;;9.73;4.50;;;;;;;;;;5077931;28;20028;-76
2023/03/26 09:46:56;;;;;;;7.35;4.35;;;;;;;;;;5077819;28;20024;-76
2023/03/26 09:49:24;;;;;;;7.65;4.60;;;;;;;;;;5076221;28;20047;-76
2023/03/26 09:52:14;;;;;;;9.48;4.55;;;;;;;;;;5076152;28;20040;-76
2023/03/26 09:54:43;;;;;;;7.88;4.53;;;;;;;;;;5094813;28;20089;-76
2023/03/26 09:57:33;;;;;;;6.80;4.28;;;;;;;;;;5094656;28;20028;-77
2023/03/26 10:00:14;;;;;;;8.88;4.57;;;;;;;;;;5094436;28;20028;-77
2023/03/26 10:03:24;;;;;;;8.63;4.53;;;;;;;;;;5059732;28;20032;-77
2023/03/26 10:06:10;;;;;;;;;;;;;;;;;;5015602;28;20133;-76
2023/03/26 10:08:50;;;;;;;9.15;4.22;;;;;;;;;;5075970;28;19961;-78
2023/03/26 10:11:37;;;;;;;8.35;4.50;;;;;;;;;;5061532;28;20035;-76
2023/03/26 10:14:14;;;;;;;7.70;4.53;;;;;;;;;;5094282;28;20094;-76
2023/03/26 10:16:51;;;;;;;8.57;4.50;;;;;;;;;;5094409;28;20058;-77
2023/03/26 10:19:28;;;;;;;7.10;3.85;;;;;;;;;;5075967;28;20141;-76
2023/03/26 10:22:22;;;;;;;9.35;3.97;;;;;;;;;;5060959;28;20103;-76
2023/03/26 10:25:16;;;;;;;5.80;3.33;;;;;;;;;;5061065;28;20046;-76
2023/03/26 10:27:51;;;;;;;6.00;3.20;;;;;;;;;;5094305;28;20550;-77
2023/03/26 10:30:36;;;;;;;5.50;3.10;;;;;;;;;;5076762;28;20415;-76
2023/03/26 10:33:25;;;;;;;8.20;4.32;;;;;;;;;;5094300;28;20036;-78
2023/03/26 10:36:36;;;;;;;10.73;3.50;;;;;;;;;;5094100;28;20032;-76
2023/03/26 10:39:01;;;;;;;7.43;3.35;;;;;;;;;;4998719;28;20095;-77
2023/03/26 10:41:34;;;;;;;6.57;3.55;;;;;;;;;;5031781;28;20100;-78
2023/03/26 10:44:20;;;;;;;7.85;3.22;;;;;;;;;;5049019;28;20362;-77
2023/03/26 10:46:49;;;;;;;5.38;3.17;;;;;;;;;;5093947;28;20028;-77
2023/03/26 10:49:59;;;;;;;4.82;2.78;;;;;;;;;;5093573;28;20114;-77
2023/03/26 10:52:28;;;;;;;4.70;3.10;;;;;;;;;;5031578;28;20140;-78
2023/03/26 10:55:02;;;;;;;5.28;2.83;;;;;;;;;;5068750;28;20063;-76
2023/03/26 10:57:30;;;;;;;3.92;2.72;;;;;;;;;;5093729;28;20054;-75
2023/03/26 10:59:57;;;;;;;5.57;2.70;;;;;;;;;;5093954;28;20032;-76
2023/03/26 11:02:30;;;;;;;7.32;2.65;;;;;;;;;;5058836;28;20106;-76
2023/03/26 11:05:15;;;;;;;5.90;3.13;;;;;;;;;;5059413;28;20028;-77
2023/03/26 11:08:05;;;;;;;6.65;3.20;;;;;;;;;;5093674;28;20024;-76
2023/03/26 11:10:45;;;;;;;24.73;12.07;;;;;;;;;;5078392;28;20062;-76
2023/03/26 11:13:26;;;;;;;10.25;4.13;;;;;;;;;;5076981;28;20376;-77
2023/03/26 11:16:03;;;;;;;4.63;2.28;;;;;;;;;;5075306;28;20151;-78
2023/03/26 11:19:10;;;;;;;8.95;2.75;;;;;;;;;;5075444;28;20024;-77
2023/03/26 11:21:49;;;;;;;6.00;2.85;;;;;;;;;;4998360;28;20061;-77
2023/03/26 11:24:29;;;;;;;9.70;4.97;;;;;;;;;;5040367;28;20071;-77
2023/03/26 11:26:57;;;;;;;7.07;2.95;;;;;;;;;;5093440;28;20035;-76
2023/03/26 11:30:05;;;;;;;4.90;2.22;;;;;;;;;;5058831;28;20123;-76
2023/03/26 11:33:01;;;;;;;4.25;2.08;;;;;;;;;;5058122;28;20032;-78
2023/03/26 11:35:36;;;;;;;3.03;2.00;;;;;;;;;;5067064;28;20047;-76
2023/03/26 11:38:06;;;;;;;4.70;2.17;;;;;;;;;;5063582;28;20031;-77
2023/03/26 11:40:45;;;;;;;7.40;2.10;;;;;;;;;;5062621;28;20028;-76
2023/03/26 11:43:11;;;;;;;8.45;2.13;;;;;;;;;;5064431;28;20486;-77
2023/03/26 11:45:39;;;;;;;3.65;2.05;;;;;;;;;;5061997;28;20115;-76
2023/03/26 11:48:11;;;;;;;3.50;1.80;;;;;;;;;;5079323;28;20040;-76
2023/03/26 11:51:06;;;;;;;3.72;1.70;;;;;;;;;;5063263;28;20063;-78
2023/03/26 11:53:33;;;;;;;4.18;1.90;;;;;;;;;;5063501;28;20047;-78
2023/03/26 11:56:04;;;;;;;3.83;1.80;;;;;;;;;;5078851;28;20024;-78
2023/03/26 11:59:16;;;;;;;4.53;1.70;;;;;;;;;;5096882;28;20017;-78
2023/03/26 12:01:50;;;;;;;2.47;1.38;;;;;;;;;;5032274;28;20142;-75
2023/03/26 12:04:32;;;;;;;5.13;1.40;;;;;;;;;;5096737;28;20062;-77
2023/03/26 12:07:06;;;;;;;5.03;1.95;;;;;;;;;;5063090;28;20363;-76
2023/03/26 12:09:31;;;;;;;3.40;1.52;;;;;;;;;;5096614;28;20028;-76
2023/03/26 12:12:02;;;;;;;2.92;1.50;;;;;;;;;;5096370;28;20503;-75
2023/03/26 12:14:29;;;;;;;3.17;1.73;;;;;;;;;;5045478;28;20040;-77
2023/03/26 12:17:10;;;;;;;2.97;1.50;;;;;;;;;;5061624;28;20052;-77
2023/03/26 12:19:43;;;;;;;3.97;1.38;;;;;;;;;;5063354;28;20415;-77
2023/03/26 12:22:32;;;;;;;5.78;1.65;;;;;;;;;;5078428;28;20020;-77
2023/03/26 12:25:16;;;;;;;5.07;2.58;;;;;;;;;;5078213;28;20055;-76
2023/03/26 12:27:57;;;;;;;3.67;2.00;;;;;;;;;;5061912;28;20032;-78
2023/03/26 12:30:26;;;;;;;5.45;2.00;;;;;;;;;;5077988;28;20036;-77
2023/03/26 12:32:56;;;;;;;5.30;1.93;;;;;;;;;;5078188;28;20424;-78
2023/03/26 12:35:26;;;;;;;1.90;1.50;;;;;;;;;;5045022;28;20282;-76
2023/03/26 12:37:52;;;;;;;3.00;1.80;;;;;;;;;;5061502;28;20036;-78
2023/03/26 12:40:24;;;;;;;2.38;1.45;;;;;;;;;;5061409;28;20067;-77
2023/03/26 12:42:57;;;;;;;5.07;1.95;;;;;;;;;;5095919;28;20086;-77
2023/03/26 12:45:28;;;;;;;3.42;1.40;;;;;;;;;;5076480;28;20071;-77
2023/03/26 12:47:53;;;;;;;3.67;1.75;;;;;;;;;;5078560;28;20032;-79
2023/03/26 12:50:19;;;;;;;5.10;1.58;;;;;;;;;;5061205;28;20077;-78
2023/03/26 12:53:20;;;;;;;3.45;1.60;;;;;;;;;;5044237;28;20028;-79
2023/03/26 12:55:59;;;;;;;5.50;1.65;;;;;;;;;;5058173;28;20037;-78
2023/03/26 12:58:54;;;;;;;3.80;1.45;;;;;;;;;;5077764;28;20024;-76
2023/03/26 13:01:29;;;;;;;3.40;1.65;;;;;;;;;;5095646;28;20028;-79
2023/03/26 13:04:04;;;;;;;7.28;2.35;;;;;;;;;;5061680;28;20126;-77
2023/03/26 13:06:43;;;;;;;2.67;1.55;;;;;;;;;;5096031;28;20023;-76
2023/03/26 13:09:18;;;;;;;3.85;1.85;;;;;;;;;;5077645;28;20039;-76
2023/03/26 13:12:03;;;;;;;5.28;1.38;;;;;;;;;;5077209;28;20032;-79
2023/03/26 13:14:38;;;;;;;6.70;1.67;;;;;;;;;;5078256;28;20032;-76
2023/03/26 13:17:11;;;;;;;4.47;1.45;;;;;;;;;;5094976;28;20504;-77
2023/03/26 13:20:11;;;;;;;3.80;1.55;;;;;;;;;;5077057;28;20039;-76
2023/03/26 13:23:07;;;;;;;7.20;2.05;;;;;;;;;;5095235;28;20039;-76
2023/03/26 13:26:10;;;;;;;5.07;2.00;;;;;;;;;;5074103;28;20449;-79
2023/03/26 13:28:51;;;;;;;2.60;1.63;;;;;;;;;;5079695;28;20032;-79
2023/03/26 13:31:20;;;;;;;2.42;1.75;;;;;;;;;;5077606;28;20028;-79
2023/03/26 13:34:01;;;;;;;5.03;1.58;;;;;;;;;;5076888;28;20043;-77
2023/03/26 13:36:47;;;;;;;3.88;1.27;;;;;;;;;;5094863;28;20442;-77
2023/03/26 13:39:21;;;;;;;2.72;1.35;;;;;;;;;;5061347;28;20051;-78
2023/03/26 13:42:12;;;;;;;2.58;1.35;;;;;;;;;;5076512;28;20445;-75
2023/03/26 13:44:53;;;;;;;5.97;1.50;;;;;;;;;;5076144;28;20055;-77
2023/03/26 13:47:20;;;;;;;2.67;1.30;;;;;;;;;;5095013;28;20377;-78
2023/03/26 13:49:49;;;;;;;5.90;1.52;;;;;;;;;;5043302;28;20043;-77
2023/03/26 13:52:32;;;;;;;4.43;1.20;;;;;;;;;;5076572;28;20081;-77
2023/03/26 13:55:05;;;;;;;2.40;1.20;;;;;;;;;;5060349;28;20024;-77
2023/03/26 13:57:36;;;;;;;3.70;1.50;;;;;;;;;;5076051;28;20046;-77
2023/03/26 14:00:25;;;;;;;2.28;1.20;;;;;;;;;;5043585;28;20468;-77
2023/03/26 14:02:56;;;;;;;1.77;1.20;;;;;;;;;;5077132;28;20028;-78
2023/03/26 14:05:25;;;;;;;4.38;1.20;;;;;;;;;;5060523;28;20032;-77
2023/03/26 14:08:00;;;;;;;2.28;1.15;;;;;;;;;;5043574;28;20016;-77
2023/03/26 14:10:27;;;;;;;1.40;1.00;;;;;;;;;;5059383;28;20118;-78
2023/03/26 14:13:24;;;;;;;4.15;1.50;;;;;;;;;;5042981;28;20427;-77
2023/03/26 14:15:53;;;;;;;2.72;1.33;;;;;;;;;;5061990;28;20044;-76
2023/03/26 14:18:35;;;;;;;2.55;1.52;;;;;;;;;;5076551;28;20370;-76
2023/03/26 14:21:12;;;;;;;5.35;1.63;;;;;;;;;;5060491;28;20040;-76
2023/03/26 14:23:41;;;;;;;7.70;2.35;;;;;;;;;;5076231;28;20024;-78
2023/03/26 14:26:16;;;;;;;4.82;1.77;;;;;;;;;;5094412;28;20035;-76
2023/03/26 14:28:50;;;;;;;8.90;3.67;;;;;;;;;;5094083;28;20032;-78
2023/03/26 14:31:28;;;;;;;5.00;2.45;;;;;;;;;;5094053;28;20157;-78
2023/03/26 14:34:18;;;;;;;3.95;1.60;;;;;;;;;;5076108;28;20051;-78
2023/03/26 14:37:16;;;;;;;6.35;2.60;;;;;;;;;;5094581;28;20028;-76
2023/03/26 14:40:06;;;;;;;4.38;2.20;;;;;;;;;;5077432;28;20056;-77
2023/03/26 14:42:40;;;;;;;3.88;1.58;;;;;;;;;;5076746;28;20028;-75
2023/03/26 14:45:21;;;;;;;2.38;1.73;;;;;;;;;;5059950;28;20028;-76
2023/03/26 14:48:12;;;;;;;5.43;1.42;;;;;;;;;;5093874;28;20028;-75
2023/03/26 14:50:53;;;;;;;4.00;1.90;;;;;;;;;;5075777;28;20127;-75
2023/03/26 14:53:28;;;;;;;8.40;3.03;;;;;;;;;;5094218;28;20081;-77
2023/03/26 14:56:09;;;;;;;3.78;2.08;;;;;;;;;;5075734;28;20413;-75
2023/03/26 14:58:40;;;;;;;4.47;2.30;;;;;;;;;;5076125;28;20031;-75
2023/03/26 15:01:13;;;;;;;6.32;1.65;;;;;;;;;;5093822;28;20078;-75
2023/03/26 15:03:50;;;;;;;3.80;2.17;;;;;;;;;;5075977;28;20032;-77
2023/03/26 15:06:49;;;;;;;5.95;2.55;;;;;;;;;;5076098;28;20480;-77
2023/03/26 15:09:48;;;;;;;5.40;2.50;;;;;;;;;;5078591;28;20035;-78
2023/03/26 15:12:49;;;;;;;3.92;2.30;;;;;;;;;;5097738;28;20796;-78
2023/03/26 15:15:51;;;;;;;6.97;3.15;;;;;;;;;;5028145;28;20048;-78